createdAt,value
2018-07-30T00:00:21.540Z,0
2018-07-30T00:01:22.930Z,0
2018-07-30T00:02:24.332Z,0
2018-07-30T00:03:25.723Z,0
2018-07-30T00:04:27.117Z,0
2018-07-30T00:05:28.553Z,0
2018-07-30T00:06:29.929Z,0
2018-07-30T00:07:31.339Z,0
2018-07-30T00:08:32.735Z,0
2018-07-30T00:09:34.153Z,0
2018-07-30T00:10:35.583Z,0
2018-07-30T00:11:36.982Z,0
2018-07-30T00:12:38.376Z,0
2018-07-30T00:13:39.777Z,0
2018-07-30T00:14:41.188Z,0
2018-07-30T00:15:42.587Z,0
2018-07-30T00:16:43.984Z,0
2018-07-30T00:17:45.380Z,0
2018-07-30T00:18:46.784Z,0
2018-07-30T00:19:48.180Z,0
2018-07-30T00:20:49.577Z,0
2018-07-30T00:21:50.972Z,0
2018-07-30T00:22:52.371Z,0
2018-07-30T00:23:53.783Z,0
2018-07-30T00:24:55.179Z,0
2018-07-30T00:25:56.577Z,0
2018-07-30T00:26:57.975Z,0
2018-07-30T00:27:59.366Z,0
2018-07-30T00:29:00.765Z,0
2018-07-30T00:30:02.162Z,0
2018-07-30T00:31:03.554Z,0
2018-07-30T00:32:04.955Z,0
2018-07-30T00:33:06.349Z,0
2018-07-30T00:34:07.746Z,0
2018-07-30T00:35:09.143Z,0
2018-07-30T00:36:10.538Z,0
2018-07-30T00:37:11.935Z,0
2018-07-30T00:38:13.364Z,0
2018-07-30T00:39:14.774Z,0
2018-07-30T00:40:16.169Z,0
2018-07-30T00:41:17.563Z,0
2018-07-30T00:42:18.960Z,0
2018-07-30T00:43:20.362Z,0
2018-07-30T00:44:21.756Z,0
2018-07-30T00:45:23.151Z,0
2018-07-30T00:46:24.550Z,0
2018-07-30T00:47:25.939Z,0
2018-07-30T00:48:27.335Z,0
2018-07-30T00:49:28.767Z,0
2018-07-30T00:50:30.235Z,0
2018-07-30T00:51:31.633Z,0
2018-07-30T00:52:33.034Z,0
2018-07-30T00:53:34.424Z,0
2018-07-30T00:54:35.819Z,0
2018-07-30T00:55:37.214Z,0
2018-07-30T00:56:38.611Z,0
2018-07-30T00:57:40.008Z,0
2018-07-30T00:58:41.402Z,0
2018-07-30T00:59:42.798Z,0
2018-07-30T01:00:44.191Z,0
2018-07-30T01:01:45.585Z,0
2018-07-30T01:02:46.980Z,0
2018-07-30T01:03:48.387Z,0
2018-07-30T01:04:49.795Z,0
2018-07-30T01:05:51.187Z,0
2018-07-30T01:06:52.577Z,0
2018-07-30T01:07:53.976Z,0
2018-07-30T01:08:55.376Z,0
2018-07-30T01:09:56.772Z,0
2018-07-30T01:10:58.164Z,0
2018-07-30T01:11:59.567Z,0
2018-07-30T01:13:00.957Z,0
2018-07-30T01:14:02.352Z,0
2018-07-30T01:15:03.753Z,0
2018-07-30T01:16:05.144Z,0
2018-07-30T01:17:06.538Z,0
2018-07-30T01:18:07.932Z,0
2018-07-30T01:19:09.334Z,0
2018-07-30T01:20:10.752Z,0
2018-07-30T01:21:12.150Z,0
2018-07-30T01:22:13.550Z,0
2018-07-30T01:23:14.946Z,0
2018-07-30T01:24:16.341Z,0
2018-07-30T01:25:17.737Z,0
2018-07-30T01:26:19.133Z,0
2018-07-30T01:27:20.531Z,0
2018-07-30T01:28:21.929Z,0
2018-07-30T01:29:23.329Z,0
2018-07-30T01:30:24.722Z,0
2018-07-30T01:31:26.243Z,0
2018-07-30T01:32:27.638Z,0
2018-07-30T01:33:29.036Z,0
2018-07-30T01:34:30.434Z,0
2018-07-30T01:35:31.833Z,0
2018-07-30T01:36:33.235Z,0
2018-07-30T01:37:34.624Z,0
2018-07-30T01:38:36.022Z,0
2018-07-30T01:39:37.418Z,0
2018-07-30T01:40:38.817Z,0
2018-07-30T01:41:40.211Z,0
2018-07-30T01:42:41.614Z,0
2018-07-30T01:43:43.013Z,0
2018-07-30T01:44:44.407Z,0
2018-07-30T01:45:45.804Z,0
2018-07-30T01:46:47.199Z,0
2018-07-30T01:47:48.595Z,0
2018-07-30T01:48:49.987Z,0
2018-07-30T01:49:51.384Z,0
2018-07-30T01:50:52.776Z,0
2018-07-30T01:51:54.172Z,0
2018-07-30T01:52:55.574Z,0
2018-07-30T01:53:56.963Z,0
2018-07-30T01:54:58.359Z,0
2018-07-30T01:55:59.750Z,0
2018-07-30T01:57:01.144Z,0
2018-07-30T01:58:02.538Z,0
2018-07-30T01:59:03.933Z,0
2018-07-30T02:00:05.329Z,0
2018-07-30T02:01:06.724Z,0
2018-07-30T02:02:08.125Z,0
2018-07-30T02:03:09.522Z,0
2018-07-30T02:04:10.916Z,0
2018-07-30T02:05:12.310Z,0
2018-07-30T02:06:13.706Z,0
2018-07-30T02:07:15.103Z,0
2018-07-30T02:08:16.501Z,0
2018-07-30T02:09:17.902Z,0
2018-07-30T02:10:19.298Z,0
2018-07-30T02:11:20.692Z,0
2018-07-30T02:12:22.141Z,0
2018-07-30T02:13:23.554Z,0
2018-07-30T02:14:24.951Z,0
2018-07-30T02:15:26.345Z,0
2018-07-30T02:16:27.741Z,0
2018-07-30T02:17:29.138Z,0
2018-07-30T02:18:30.535Z,0
2018-07-30T02:19:31.973Z,0
2018-07-30T02:20:33.369Z,0
2018-07-30T02:21:34.856Z,0
2018-07-30T02:22:36.179Z,0
2018-07-30T02:23:37.575Z,0
2018-07-30T02:24:38.967Z,0
2018-07-30T02:25:40.358Z,0
2018-07-30T02:26:41.754Z,0
2018-07-30T02:27:43.150Z,0
2018-07-30T02:28:44.544Z,0
2018-07-30T02:29:45.967Z,0
2018-07-30T02:30:47.367Z,0
2018-07-30T02:31:48.762Z,0
2018-07-30T02:32:50.154Z,0
2018-07-30T02:33:51.550Z,0
2018-07-30T02:34:52.948Z,0
2018-07-30T02:35:54.346Z,0
2018-07-30T02:36:55.740Z,0
2018-07-30T02:37:57.141Z,0
2018-07-30T02:38:58.534Z,0
2018-07-30T02:39:59.930Z,0
2018-07-30T02:41:01.323Z,0
2018-07-30T02:42:02.729Z,0
2018-07-30T02:43:04.125Z,0
2018-07-30T02:44:05.520Z,0
2018-07-30T02:45:06.914Z,0
2018-07-30T02:46:08.306Z,0
2018-07-30T02:47:09.700Z,0
2018-07-30T02:48:11.100Z,0
2018-07-30T02:49:12.494Z,0
2018-07-30T02:50:13.889Z,0
2018-07-30T02:51:15.284Z,0
2018-07-30T02:52:16.677Z,0
2018-07-30T02:53:18.131Z,0
2018-07-30T02:54:19.521Z,0
2018-07-30T02:55:20.920Z,0
2018-07-30T02:56:22.316Z,0
2018-07-30T02:57:23.708Z,0
2018-07-30T02:58:25.109Z,0
2018-07-30T02:59:26.499Z,0
2018-07-30T03:00:27.893Z,0
2018-07-30T03:01:29.289Z,0
2018-07-30T03:02:30.683Z,0
2018-07-30T03:03:32.130Z,0
2018-07-30T03:04:33.476Z,0
2018-07-30T03:05:34.875Z,0
2018-07-30T03:06:36.272Z,0
2018-07-30T03:07:37.672Z,0
2018-07-30T03:08:39.068Z,0
2018-07-30T03:09:40.460Z,0
2018-07-30T03:10:41.870Z,0
2018-07-30T03:11:43.264Z,0
2018-07-30T03:12:44.656Z,0
2018-07-30T03:13:46.056Z,0
2018-07-30T03:14:47.450Z,0
2018-07-30T03:15:48.841Z,0
2018-07-30T03:16:50.236Z,0
2018-07-30T03:17:51.633Z,0
2018-07-30T03:18:53.030Z,0
2018-07-30T03:19:54.423Z,4
2018-07-30T03:20:55.821Z,4
2018-07-30T03:21:57.212Z,4
2018-07-30T03:22:58.610Z,4
2018-07-30T03:24:00.006Z,4
2018-07-30T03:25:01.404Z,0
2018-07-30T03:26:02.804Z,0
2018-07-30T03:27:04.205Z,0
2018-07-30T03:28:05.604Z,4
2018-07-30T03:29:06.993Z,4
2018-07-30T03:30:08.386Z,0
2018-07-30T03:31:09.780Z,4
2018-07-30T03:32:11.175Z,4
2018-07-30T03:33:12.571Z,4
2018-07-30T03:34:14.053Z,4
2018-07-30T03:35:15.480Z,4
2018-07-30T03:36:16.873Z,8
2018-07-30T03:37:18.268Z,8
2018-07-30T03:38:19.659Z,4
2018-07-30T03:39:21.049Z,8
2018-07-30T03:40:22.452Z,8
2018-07-30T03:41:23.845Z,12
2018-07-30T03:42:25.251Z,12
2018-07-30T03:43:26.641Z,12
2018-07-30T03:44:28.036Z,12
2018-07-30T03:45:29.435Z,16
2018-07-30T03:46:30.824Z,20
2018-07-30T03:47:32.222Z,20
2018-07-30T03:48:33.620Z,24
2018-07-30T03:49:35.017Z,28
2018-07-30T03:50:36.408Z,32
2018-07-30T03:51:37.804Z,32
2018-07-30T03:52:39.194Z,36
2018-07-30T03:53:40.591Z,40
2018-07-30T03:54:42.028Z,44
2018-07-30T03:55:43.389Z,48
2018-07-30T03:56:44.784Z,52
2018-07-30T03:57:46.181Z,52
2018-07-30T03:58:47.584Z,60
2018-07-30T03:59:48.977Z,60
2018-07-30T04:00:50.376Z,64
2018-07-30T04:01:51.771Z,68
2018-07-30T04:02:53.171Z,76
2018-07-30T04:03:54.573Z,80
2018-07-30T04:04:55.966Z,80
2018-07-30T04:05:57.367Z,84
2018-07-30T04:06:58.763Z,92
2018-07-30T04:08:00.208Z,96
2018-07-30T04:09:01.563Z,104
2018-07-30T04:10:02.964Z,112
2018-07-30T04:11:04.357Z,120
2018-07-30T04:12:05.755Z,124
2018-07-30T04:13:07.154Z,132
2018-07-30T04:14:08.553Z,136
2018-07-30T04:15:10.047Z,144
2018-07-30T04:16:11.470Z,156
2018-07-30T04:17:12.864Z,164
2018-07-30T04:18:14.265Z,176
2018-07-30T04:19:15.660Z,184
2018-07-30T04:20:17.053Z,196
2018-07-30T04:21:18.452Z,200
2018-07-30T04:22:19.851Z,204
2018-07-30T04:23:21.259Z,208
2018-07-30T04:24:22.659Z,212
2018-07-30T04:25:24.084Z,220
2018-07-30T04:26:25.479Z,224
2018-07-30T04:27:26.875Z,228
2018-07-30T04:28:28.280Z,236
2018-07-30T04:29:29.678Z,244
2018-07-30T04:30:31.103Z,256
2018-07-30T04:31:32.502Z,264
2018-07-30T04:32:33.903Z,276
2018-07-30T04:33:35.294Z,280
2018-07-30T04:34:36.688Z,288
2018-07-30T04:35:38.084Z,292
2018-07-30T04:36:39.500Z,300
2018-07-30T04:37:40.896Z,304
2018-07-30T04:38:42.293Z,304
2018-07-30T04:39:43.696Z,304
2018-07-30T04:40:45.099Z,308
2018-07-30T04:41:46.495Z,312
2018-07-30T04:42:47.891Z,320
2018-07-30T04:43:49.368Z,328
2018-07-30T04:44:50.690Z,332
2018-07-30T04:45:52.089Z,336
2018-07-30T04:46:53.489Z,344
2018-07-30T04:47:54.886Z,360
2018-07-30T04:48:56.279Z,376
2018-07-30T04:49:57.683Z,388
2018-07-30T04:50:59.075Z,412
2018-07-30T04:52:00.476Z,428
2018-07-30T04:53:01.878Z,432
2018-07-30T04:54:03.272Z,448
2018-07-30T04:55:04.672Z,460
2018-07-30T04:56:06.139Z,480
2018-07-30T04:57:07.567Z,476
2018-07-30T04:58:08.969Z,516
2018-07-30T04:59:10.367Z,536
2018-07-30T05:00:11.768Z,564
2018-07-30T05:01:13.166Z,588
2018-07-30T05:02:14.560Z,620
2018-07-30T05:03:15.954Z,652
2018-07-30T05:04:17.354Z,684
2018-07-30T05:05:18.759Z,716
2018-07-30T05:06:20.153Z,740
2018-07-30T05:07:21.572Z,772
2018-07-30T05:08:23.027Z,800
2018-07-30T05:09:24.426Z,836
2018-07-30T05:10:25.830Z,864
2018-07-30T05:11:27.226Z,904
2018-07-30T05:12:28.622Z,956
2018-07-30T05:13:30.015Z,976
2018-07-30T05:14:31.416Z,1004
2018-07-30T05:15:32.819Z,1032
2018-07-30T05:16:34.220Z,1064
2018-07-30T05:17:35.625Z,1084
2018-07-30T05:18:37.021Z,1108
2018-07-30T05:19:38.442Z,1132
2018-07-30T05:20:39.855Z,1160
2018-07-30T05:21:41.253Z,1172
2018-07-30T05:22:42.656Z,1196
2018-07-30T05:23:44.059Z,1224
2018-07-30T05:24:46.030Z,1244
2018-07-30T05:25:47.431Z,1260
2018-07-30T05:26:48.828Z,1272
2018-07-30T05:27:50.224Z,1296
2018-07-30T05:28:51.629Z,1316
2018-07-30T05:29:53.033Z,1336
2018-07-30T05:30:54.432Z,1352
2018-07-30T05:31:55.895Z,1360
2018-07-30T05:32:57.297Z,1376
2018-07-30T05:33:58.699Z,1396
2018-07-30T05:35:00.104Z,1396
2018-07-30T05:36:01.688Z,1404
2018-07-30T05:37:03.095Z,1412
2018-07-30T05:38:04.493Z,1420
2018-07-30T05:39:05.893Z,1428
2018-07-30T05:40:07.295Z,1420
2018-07-30T05:41:08.699Z,1432
2018-07-30T05:42:10.103Z,1436
2018-07-30T05:43:11.511Z,1448
2018-07-30T05:44:12.911Z,1460
2018-07-30T05:45:14.346Z,1472
2018-07-30T05:46:15.748Z,1492
2018-07-30T05:47:17.152Z,1504
2018-07-30T05:48:18.560Z,1508
2018-07-30T05:49:19.959Z,1520
2018-07-30T05:50:21.361Z,1536
2018-07-30T05:51:22.754Z,1552
2018-07-30T05:52:24.156Z,1568
2018-07-30T05:53:25.563Z,1572
2018-07-30T05:54:26.969Z,1536
2018-07-30T05:55:28.368Z,1488
2018-07-30T05:56:29.769Z,1500
2018-07-30T05:57:31.175Z,1492
2018-07-30T05:58:32.581Z,1484
2018-07-30T05:59:34.004Z,1488
2018-07-30T06:00:35.381Z,1504
2018-07-30T06:01:36.777Z,1504
2018-07-30T06:02:38.179Z,1528
2018-07-30T06:03:39.596Z,1548
2018-07-30T06:04:41.009Z,1580
2018-07-30T06:05:42.415Z,1612
2018-07-30T06:06:43.817Z,1636
2018-07-30T06:07:45.215Z,1660
2018-07-30T06:08:46.616Z,1668
2018-07-30T06:09:48.017Z,1672
2018-07-30T06:10:49.414Z,1668
2018-07-30T06:11:50.816Z,1668
2018-07-30T06:12:52.214Z,1664
2018-07-30T06:13:53.619Z,1664
2018-07-30T06:14:55.019Z,1648
2018-07-30T06:15:56.421Z,1652
2018-07-30T06:16:57.891Z,1668
2018-07-30T06:17:59.297Z,1704
2018-07-30T06:19:00.701Z,1740
2018-07-30T06:20:02.102Z,1768
2018-07-30T06:21:03.564Z,1780
2018-07-30T06:22:04.922Z,1804
2018-07-30T06:23:06.326Z,1848
2018-07-30T06:24:07.751Z,1844
2018-07-30T06:25:09.150Z,1848
2018-07-30T06:26:10.552Z,1872
2018-07-30T06:27:11.957Z,1888
2018-07-30T06:28:13.355Z,1868
2018-07-30T06:29:14.753Z,1920
2018-07-30T06:30:16.172Z,1848
2018-07-30T06:31:17.548Z,1856
2018-07-30T06:32:18.946Z,1864
2018-07-30T06:33:20.356Z,1932
2018-07-30T06:34:21.757Z,1968
2018-07-30T06:35:23.152Z,2008
2018-07-30T06:36:24.554Z,2024
2018-07-30T06:37:25.957Z,2040
2018-07-30T06:38:27.387Z,2104
2018-07-30T06:39:28.766Z,2156
2018-07-30T06:40:30.164Z,2508
2018-07-30T06:41:31.565Z,2276
2018-07-30T06:42:32.968Z,2076
2018-07-30T06:43:34.369Z,2044
2018-07-30T06:44:35.768Z,2008
2018-07-30T06:45:37.167Z,2036
2018-07-30T06:46:38.572Z,2052
2018-07-30T06:47:39.973Z,2100
2018-07-30T06:48:41.378Z,2172
2018-07-30T06:49:42.776Z,2188
2018-07-30T06:50:44.178Z,2148
2018-07-30T06:51:45.575Z,2196
2018-07-30T06:52:46.984Z,2168
2018-07-30T06:53:48.371Z,2212
2018-07-30T06:54:49.769Z,2264
2018-07-30T06:55:51.172Z,2284
2018-07-30T06:56:52.571Z,2584
2018-07-30T06:57:54.029Z,2704
2018-07-30T06:58:55.433Z,2496
2018-07-30T06:59:56.872Z,2388
2018-07-30T07:00:58.284Z,2200
2018-07-30T07:01:59.692Z,2164
2018-07-30T07:03:01.083Z,2284
2018-07-30T07:04:02.479Z,2412
2018-07-30T07:05:03.878Z,2604
2018-07-30T07:06:05.277Z,2892
2018-07-30T07:07:06.678Z,3216
2018-07-30T07:08:08.078Z,3124
2018-07-30T07:09:09.485Z,3068
2018-07-30T07:10:10.890Z,2972
2018-07-30T07:11:12.285Z,2968
2018-07-30T07:12:13.684Z,2972
2018-07-30T07:13:15.090Z,2912
2018-07-30T07:14:16.502Z,2916
2018-07-30T07:15:17.895Z,2932
2018-07-30T07:16:19.297Z,2908
2018-07-30T07:17:20.704Z,2876
2018-07-30T07:18:22.101Z,2844
2018-07-30T07:19:23.514Z,2868
2018-07-30T07:20:24.915Z,2896
2018-07-30T07:21:26.408Z,2960
2018-07-30T07:22:27.723Z,3028
2018-07-30T07:23:29.126Z,3068
2018-07-30T07:24:30.528Z,3092
2018-07-30T07:25:31.926Z,3164
2018-07-30T07:26:33.330Z,3064
2018-07-30T07:27:34.735Z,3120
2018-07-30T07:28:36.134Z,3132
2018-07-30T07:29:37.535Z,3204
2018-07-30T07:30:38.941Z,3292
2018-07-30T07:31:40.347Z,3388
2018-07-30T07:32:41.756Z,3416
2018-07-30T07:33:43.151Z,3440
2018-07-30T07:34:44.552Z,3476
2018-07-30T07:35:45.951Z,3512
2018-07-30T07:36:47.357Z,3508
2018-07-30T07:37:48.820Z,3536
2018-07-30T07:38:50.232Z,3492
2018-07-30T07:39:51.631Z,3440
2018-07-30T07:40:53.034Z,3376
2018-07-30T07:41:54.434Z,3248
2018-07-30T07:42:55.835Z,3176
2018-07-30T07:43:57.238Z,3116
2018-07-30T07:44:58.693Z,3020
2018-07-30T07:46:00.048Z,2948
2018-07-30T07:47:01.444Z,2940
2018-07-30T07:48:02.847Z,2924
2018-07-30T07:49:04.247Z,2924
2018-07-30T07:50:05.680Z,3016
2018-07-30T07:51:07.066Z,3156
2018-07-30T07:52:08.479Z,3196
2018-07-30T07:53:09.888Z,3252
2018-07-30T07:54:11.286Z,3396
2018-07-30T07:55:12.686Z,3496
2018-07-30T07:56:14.089Z,3496
2018-07-30T07:57:15.493Z,3612
2018-07-30T07:58:16.895Z,3684
2018-07-30T07:59:18.298Z,3692
2018-07-30T08:00:19.707Z,5040
2018-07-30T08:01:21.112Z,3876
2018-07-30T08:02:22.517Z,4088
2018-07-30T08:03:23.915Z,3864
2018-07-30T08:04:25.319Z,3928
2018-07-30T08:05:26.726Z,3948
2018-07-30T08:06:28.133Z,4144
2018-07-30T08:07:29.535Z,4568
2018-07-30T08:08:30.937Z,4120
2018-07-30T08:09:32.336Z,4248
2018-07-30T08:10:33.737Z,4192
2018-07-30T08:11:35.140Z,4480
2018-07-30T08:12:36.546Z,4040
2018-07-30T08:13:37.946Z,3936
2018-07-30T08:14:39.348Z,3792
2018-07-30T08:15:40.748Z,3768
2018-07-30T08:16:42.155Z,3640
2018-07-30T08:17:43.551Z,4396
2018-07-30T08:18:45.039Z,3656
2018-07-30T08:19:46.486Z,3320
2018-07-30T08:20:47.870Z,3204
2018-07-30T08:21:49.277Z,3356
2018-07-30T08:22:50.675Z,3128
2018-07-30T08:23:52.077Z,3436
2018-07-30T08:24:53.512Z,3160
2018-07-30T08:25:54.918Z,3052
2018-07-30T08:26:56.316Z,3896
2018-07-30T08:27:57.721Z,3860
2018-07-30T08:28:59.187Z,3412
2018-07-30T08:30:00.529Z,4400
2018-07-30T08:31:01.928Z,4360
2018-07-30T08:32:03.330Z,3372
2018-07-30T08:33:04.782Z,4384
2018-07-30T08:34:06.138Z,4360
2018-07-30T08:35:07.555Z,4304
2018-07-30T08:36:08.948Z,3316
2018-07-30T08:37:10.353Z,3296
2018-07-30T08:38:11.751Z,3404
2018-07-30T08:39:13.151Z,2360
2018-07-30T08:40:14.554Z,2708
2018-07-30T08:41:15.961Z,3656
2018-07-30T08:42:17.386Z,2544
2018-07-30T08:43:18.786Z,3648
2018-07-30T08:44:20.172Z,3620
2018-07-30T08:45:21.576Z,3620
2018-07-30T08:46:22.981Z,3624
2018-07-30T08:47:24.381Z,3628
2018-07-30T08:48:25.785Z,3652
2018-07-30T08:49:27.190Z,3668
2018-07-30T08:50:28.593Z,3696
2018-07-30T08:51:29.994Z,3708
2018-07-30T08:52:31.396Z,3764
2018-07-30T08:53:32.837Z,3772
2018-07-30T08:54:34.202Z,3832
2018-07-30T08:55:35.608Z,3868
2018-07-30T08:56:37.010Z,3880
2018-07-30T08:57:38.414Z,3920
2018-07-30T08:58:39.887Z,3952
2018-07-30T08:59:41.271Z,3984
2018-07-30T09:00:42.677Z,3996
2018-07-30T09:01:44.076Z,4048
2018-07-30T09:02:45.482Z,4084
2018-07-30T09:03:46.892Z,4128
2018-07-30T09:04:48.296Z,4152
2018-07-30T09:05:49.699Z,4224
2018-07-30T09:06:51.099Z,4224
2018-07-30T09:07:52.506Z,4252
2018-07-30T09:08:53.908Z,4292
2018-07-30T09:09:55.309Z,4328
2018-07-30T09:10:56.711Z,4368
2018-07-30T09:11:58.118Z,4416
2018-07-30T09:12:59.524Z,4428
2018-07-30T09:14:00.927Z,4492
2018-07-30T09:15:02.328Z,4552
2018-07-30T09:16:03.730Z,4600
2018-07-30T09:17:05.173Z,4640
2018-07-30T09:18:06.561Z,4676
2018-07-30T09:19:07.949Z,4672
2018-07-30T09:20:09.359Z,4764
2018-07-30T09:21:10.760Z,4812
2018-07-30T09:22:12.166Z,4864
2018-07-30T09:23:13.565Z,4860
2018-07-30T09:24:14.976Z,4948
2018-07-30T09:25:16.379Z,4912
2018-07-30T09:26:17.788Z,5024
2018-07-30T09:27:19.185Z,5068
2018-07-30T09:28:20.588Z,5124
2018-07-30T09:29:21.997Z,5168
2018-07-30T09:30:23.398Z,5208
2018-07-30T09:31:24.803Z,5244
2018-07-30T09:32:26.209Z,5276
2018-07-30T09:33:27.610Z,5348
2018-07-30T09:34:29.013Z,5420
2018-07-30T09:35:30.414Z,5488
2018-07-30T09:36:31.828Z,5516
2018-07-30T09:37:33.231Z,5572
2018-07-30T09:38:34.773Z,5604
2018-07-30T09:39:36.167Z,5652
2018-07-30T09:40:37.574Z,5732
2018-07-30T09:41:38.976Z,5792
2018-07-30T09:42:40.382Z,5884
2018-07-30T09:43:41.790Z,5924
2018-07-30T09:44:43.248Z,5992
2018-07-30T09:45:44.586Z,6092
2018-07-30T09:46:45.989Z,6132
2018-07-30T09:47:47.394Z,6204
2018-07-30T09:48:48.798Z,6284
2018-07-30T09:49:50.201Z,6344
2018-07-30T09:50:51.605Z,6404
2018-07-30T09:51:53.004Z,6392
2018-07-30T09:52:54.451Z,6488
2018-07-30T09:53:55.816Z,6600
2018-07-30T09:54:57.216Z,6736
2018-07-30T09:55:58.616Z,6776
2018-07-30T09:57:00.019Z,6836
2018-07-30T09:58:01.422Z,6920
2018-07-30T09:59:02.825Z,6996
2018-07-30T10:00:04.231Z,7124
2018-07-30T10:01:05.635Z,7220
2018-07-30T10:02:07.043Z,7252
2018-07-30T10:03:08.456Z,7344
2018-07-30T10:04:09.859Z,7420
2018-07-30T10:05:11.265Z,7532
2018-07-30T10:06:12.688Z,7636
2018-07-30T10:07:14.075Z,7740
2018-07-30T10:08:15.479Z,7856
2018-07-30T10:09:16.892Z,7960
2018-07-30T10:10:18.353Z,8076
2018-07-30T10:11:19.695Z,8148
2018-07-30T10:12:21.111Z,8216
2018-07-30T10:13:22.510Z,8296
2018-07-30T10:14:23.914Z,8424
2018-07-30T10:15:25.321Z,8552
2018-07-30T10:16:26.717Z,8672
2018-07-30T10:17:28.175Z,8852
2018-07-30T10:18:29.578Z,8948
2018-07-30T10:19:30.980Z,9112
2018-07-30T10:20:32.391Z,9172
2018-07-30T10:21:33.799Z,9288
2018-07-30T10:22:35.208Z,9448
2018-07-30T10:23:36.662Z,9624
2018-07-30T10:24:38.031Z,9784
2018-07-30T10:25:39.430Z,9960
2018-07-30T10:26:40.868Z,10092
2018-07-30T10:27:42.247Z,10368
2018-07-30T10:28:43.654Z,10472
2018-07-30T10:29:45.061Z,10640
2018-07-30T10:30:46.598Z,10576
2018-07-30T10:31:47.872Z,10848
2018-07-30T10:32:49.276Z,11008
2018-07-30T10:33:50.681Z,11056
2018-07-30T10:34:52.089Z,11636
2018-07-30T10:35:53.497Z,11812
2018-07-30T10:36:54.905Z,11740
2018-07-30T10:37:56.368Z,12392
2018-07-30T10:38:57.715Z,12672
2018-07-30T10:39:59.213Z,12576
2018-07-30T10:41:00.530Z,12628
2018-07-30T10:42:01.937Z,12952
2018-07-30T10:43:03.355Z,13240
2018-07-30T10:44:04.764Z,13344
2018-07-30T10:45:06.166Z,12992
2018-07-30T10:46:07.574Z,13508
2018-07-30T10:47:08.982Z,13588
2018-07-30T10:48:10.388Z,13544
2018-07-30T10:49:11.796Z,13272
2018-07-30T10:50:13.208Z,13312
2018-07-30T10:51:14.617Z,13804
2018-07-30T10:52:16.029Z,13440
2018-07-30T10:53:17.437Z,14416
2018-07-30T10:54:18.844Z,16344
2018-07-30T10:55:20.350Z,19648
2018-07-30T10:56:21.796Z,20864
2018-07-30T10:57:23.203Z,21312
2018-07-30T10:58:24.608Z,22240
2018-07-30T10:59:26.017Z,23904
2018-07-30T11:00:27.426Z,27776
2018-07-30T11:01:28.830Z,32512
2018-07-30T11:02:30.238Z,36736
2018-07-30T11:03:31.648Z,38112
2018-07-30T11:04:33.053Z,41728
2018-07-30T11:05:34.461Z,42656
2018-07-30T11:06:35.870Z,42336
2018-07-30T11:07:37.286Z,42048
2018-07-30T11:08:38.691Z,41632
2018-07-30T11:09:40.128Z,41152
2018-07-30T11:10:41.502Z,40448
2018-07-30T11:11:42.913Z,39168
2018-07-30T11:12:44.331Z,39456
2018-07-30T11:13:45.740Z,30592
2018-07-30T11:14:47.158Z,36576
2018-07-30T11:15:48.559Z,34848
2018-07-30T11:16:49.968Z,34752
2018-07-30T11:17:51.376Z,33888
2018-07-30T11:18:52.792Z,32384
2018-07-30T11:19:54.204Z,31808
2018-07-30T11:20:55.613Z,31520
2018-07-30T11:21:57.023Z,28576
2018-07-30T11:22:58.430Z,29760
2018-07-30T11:23:59.845Z,28544
2018-07-30T11:25:01.262Z,27744
2018-07-30T11:26:02.673Z,27840
2018-07-30T11:27:04.082Z,25888
2018-07-30T11:28:05.596Z,26752
2018-07-30T11:29:06.913Z,25824
2018-07-30T11:30:08.327Z,26848
2018-07-30T11:31:09.736Z,24736
2018-07-30T11:32:11.145Z,22848
2018-07-30T11:33:12.557Z,21888
2018-07-30T11:34:14.035Z,21440
2018-07-30T11:35:15.449Z,17216
2018-07-30T11:36:16.858Z,16960
2018-07-30T11:37:18.269Z,17632
2018-07-30T11:38:19.682Z,19104
2018-07-30T11:39:21.109Z,18944
2018-07-30T11:40:22.500Z,18016
2018-07-30T11:41:23.911Z,15516
2018-07-30T11:42:25.325Z,17024
2018-07-30T11:43:26.736Z,14512
2018-07-30T11:44:28.141Z,14824
2018-07-30T11:45:29.553Z,16064
2018-07-30T11:46:30.963Z,16160
2018-07-30T11:47:32.392Z,14524
2018-07-30T11:48:33.933Z,14728
2018-07-30T11:49:35.196Z,17696
2018-07-30T11:50:36.602Z,16704
2018-07-30T11:51:38.012Z,15572
2018-07-30T11:52:39.419Z,16704
2018-07-30T11:53:40.827Z,17472
2018-07-30T11:54:42.236Z,17248
2018-07-30T11:55:43.646Z,16288
2018-07-30T11:56:45.058Z,16864
2018-07-30T11:57:46.465Z,18240
2018-07-30T11:58:47.867Z,17312
2018-07-30T11:59:49.276Z,17920
2018-07-30T12:00:50.723Z,16448
2018-07-30T12:01:52.182Z,14980
2018-07-30T12:02:53.541Z,16480
2018-07-30T12:03:54.953Z,19136
2018-07-30T12:04:56.360Z,17440
2018-07-30T12:05:57.770Z,17152
2018-07-30T12:06:59.202Z,16032
2018-07-30T12:08:00.608Z,15672
2018-07-30T12:09:02.023Z,20256
2018-07-30T12:10:03.443Z,19648
2018-07-30T12:11:04.853Z,20864
2018-07-30T12:12:06.260Z,23040
2018-07-30T12:13:07.733Z,22432
2018-07-30T12:14:09.167Z,19488
2018-07-30T12:15:10.576Z,18624
2018-07-30T12:16:11.985Z,20448
2018-07-30T12:17:13.393Z,18560
2018-07-30T12:18:14.802Z,16288
2018-07-30T12:19:16.229Z,16576
2018-07-30T12:20:17.636Z,13128
2018-07-30T12:21:19.044Z,14076
2018-07-30T12:22:20.467Z,14972
2018-07-30T12:23:21.873Z,14596
2018-07-30T12:24:23.285Z,11848
2018-07-30T12:25:24.693Z,15688
2018-07-30T12:26:26.102Z,18272
2018-07-30T12:27:27.513Z,23584
2018-07-30T12:28:28.935Z,23968
2018-07-30T12:29:30.345Z,23296
2018-07-30T12:30:31.767Z,22624
2018-07-30T12:31:33.160Z,22304
2018-07-30T12:32:34.609Z,22720
2018-07-30T12:33:36.014Z,22976
2018-07-30T12:34:37.418Z,20544
2018-07-30T12:35:38.848Z,23328
2018-07-30T12:36:40.261Z,24224
2018-07-30T12:37:41.670Z,25088
2018-07-30T12:38:43.077Z,26400
2018-07-30T12:39:44.492Z,24448
2018-07-30T12:40:45.907Z,23840
2018-07-30T12:41:47.370Z,23840
2018-07-30T12:42:48.734Z,22656
2018-07-30T12:43:50.142Z,23552
2018-07-30T12:44:51.596Z,23776
2018-07-30T12:45:52.966Z,23776
2018-07-30T12:46:54.381Z,23712
2018-07-30T12:47:55.784Z,24000
2018-07-30T12:48:57.196Z,23488
2018-07-30T12:49:58.613Z,23648
2018-07-30T12:51:00.027Z,20736
2018-07-30T12:52:01.449Z,19104
2018-07-30T12:53:02.910Z,21024
2018-07-30T12:54:04.326Z,21920
2018-07-30T12:55:05.736Z,21152
2018-07-30T12:56:07.157Z,22240
2018-07-30T12:57:08.570Z,17056
2018-07-30T12:58:09.980Z,13988
2018-07-30T12:59:11.390Z,18752
2018-07-30T13:00:12.804Z,22176
2018-07-30T13:01:14.218Z,22496
2018-07-30T13:02:15.622Z,23360
2018-07-30T13:03:17.099Z,23264
2018-07-30T13:04:18.444Z,24032
2018-07-30T13:05:19.856Z,24064
2018-07-30T13:06:21.270Z,24384
2018-07-30T13:07:22.685Z,25472
2018-07-30T13:08:24.126Z,24736
2018-07-30T13:09:25.507Z,25600
2018-07-30T13:10:26.921Z,25152
2018-07-30T13:11:28.333Z,25152
2018-07-30T13:12:29.744Z,25120
2018-07-30T13:13:31.156Z,24704
2018-07-30T13:14:32.589Z,23040
2018-07-30T13:15:34.007Z,20800
2018-07-30T13:16:35.420Z,23968
2018-07-30T13:17:36.830Z,22400
2018-07-30T13:18:38.239Z,22016
2018-07-30T13:19:39.649Z,19680
2018-07-30T13:20:41.062Z,16992
2018-07-30T13:21:42.472Z,12888
2018-07-30T13:22:43.884Z,15680
2018-07-30T13:23:45.320Z,19008
2018-07-30T13:24:46.697Z,13252
2018-07-30T13:25:48.114Z,10148
2018-07-30T13:26:49.562Z,12780
2018-07-30T13:27:50.937Z,7792
2018-07-30T13:28:52.350Z,6704
2018-07-30T13:29:53.761Z,7532
2018-07-30T13:30:55.273Z,8944
2018-07-30T13:31:56.718Z,7816
2018-07-30T13:32:58.124Z,6340
2018-07-30T13:33:59.530Z,5500
2018-07-30T13:35:00.942Z,5228
2018-07-30T13:36:02.350Z,5204
2018-07-30T13:37:03.761Z,5004
2018-07-30T13:38:05.169Z,4748
2018-07-30T13:39:06.574Z,4684
2018-07-30T13:40:07.987Z,4524
2018-07-30T13:41:09.395Z,4400
2018-07-30T13:42:10.808Z,4424
2018-07-30T13:43:12.216Z,4364
2018-07-30T13:44:13.626Z,4384
2018-07-30T13:45:15.026Z,5024
2018-07-30T13:46:16.441Z,5276
2018-07-30T13:47:17.870Z,5240
2018-07-30T13:48:19.268Z,5084
2018-07-30T13:49:20.689Z,5132
2018-07-30T13:50:22.093Z,5328
2018-07-30T13:51:23.516Z,7004
2018-07-30T13:52:24.922Z,7424
2018-07-30T13:53:26.328Z,13072
2018-07-30T13:54:27.781Z,12172
2018-07-30T13:55:29.143Z,18976
2018-07-30T13:56:30.558Z,19808